^^
Station Historical Data
Daily Summary for October 13, 2017 Units:  English    Metric   Both
« Previous Day
Next Day »
Daily Weekly Monthly Yearly Custom
  High: Low: Average:
Temperature: 60.4 °F 34.6 °F 47.9 °F
Dew Point: 49.9 °F 32.8 °F 42.6 °F
Humidity: 100 % 60 % 83 %
Wind Speed: 1.0 mph 0.0 mph 0 mph
Wind Gust: 4.0 mph - -
Wind:- - East
Pressure: 30.41 in 30.16 in -
Precipitation: 0.00 in    
Historical Graphs
 
 
Tabular Data for October 13, 2017
Time Temperature Dew Point Pressure Wind Wind Speed Wind Gust Humidity Rainfall Rate (Hourly) solar Conditions
00:09 38.3 °F 35.9 °F 30.40 in Calm     91 % 0.00 in WeatherDisplay:10.37 W/m2 SKC
00:19 38.3 °F 36.2 °F 30.40 in Calm     92 % 0.00 in WeatherDisplay:10.37 W/m2 SKC
00:24 38.3 °F 36.2 °F 30.40 in Calm     92 % 0.00 in WeatherDisplay:10.37 W/m2 SKC
00:29 38.4 °F 36.3 °F 30.40 in Calm     92 % 0.00 in WeatherDisplay:10.37 W/m2 SKC
00:34 38.5 °F 36.6 °F 30.41 in Calm     93 % 0.00 in WeatherDisplay:10.37 W/m2 SKC
00:39 38.5 °F 36.7 °F 30.40 in Calm     93 % 0.00 in WeatherDisplay:10.37 W/m2 SKC
00:44 38.6 °F 36.8 °F 30.40 in Calm     93 % 0.00 in WeatherDisplay:10.37 W/m2 SKC
00:49 38.6 °F 36.8 °F 30.40 in Calm     93 % 0.00 in WeatherDisplay:10.37 W/m2 SKC
00:59 38.7 °F 36.8 °F 30.40 in Calm     93 % 0.00 in WeatherDisplay:10.37 W/m2 SKC
01:04 38.7 °F 36.9 °F 30.40 in Calm     93 % 0.00 in WeatherDisplay:10.37 W/m2 SKC
01:09 38.7 °F 36.9 °F 30.40 in Calm     93 % 0.00 in WeatherDisplay:10.37 W/m2 SKC
01:14 38.7 °F 36.9 °F 30.40 in Calm     93 % 0.00 in WeatherDisplay:10.37 W/m2 SKC
01:19 38.8 °F 37.2 °F 30.40 in Calm     94 % 0.00 in WeatherDisplay:10.37 W/m2 SKC
01:24 38.8 °F 37.2 °F 30.40 in Calm     94 % 0.00 in WeatherDisplay:10.37 W/m2 SKC
01:29 38.8 °F 37.2 °F 30.40 in Calm     94 % 0.00 in WeatherDisplay:10.37 W/m2 SKC
01:34 38.8 °F 36.9 °F 30.40 in Calm     93 % 0.00 in WeatherDisplay:10.37 W/m2 SKC
01:39 38.8 °F 36.9 °F 30.41 in Calm     93 % 0.00 in WeatherDisplay:10.37 W/m2 SKC
01:44 38.8 °F 37.2 °F 30.40 in Calm     94 % 0.00 in WeatherDisplay:10.37 W/m2 SKC
01:49 38.8 °F 36.9 °F 30.41 in Calm     93 % 0.00 in WeatherDisplay:10.37 W/m2 SKC
01:54 38.7 °F 36.9 °F 30.40 in Calm     93 % 0.00 in WeatherDisplay:10.37 W/m2 SKC
01:59 38.6 °F 36.8 °F 30.40 in Calm     93 % 0.00 in WeatherDisplay:10.37 W/m2 SKC
02:04 38.6 °F 36.8 °F 30.40 in Calm     93 % 0.00 in WeatherDisplay:10.37 W/m2 SKC
02:09 38.5 °F 36.7 °F 30.40 in Calm     93 % 0.00 in WeatherDisplay:10.37 W/m2 SKC
02:14 38.5 °F 36.7 °F 30.40 in Calm     93 % 0.00 in WeatherDisplay:10.37 W/m2 SKC
02:19 38.4 °F 36.6 °F 30.40 in Calm     93 % 0.00 in WeatherDisplay:10.37 W/m2 SKC
02:24 38.3 °F 36.5 °F 30.40 in Calm     93 % 0.00 in WeatherDisplay:10.37 W/m2 SKC
02:29 38.3 °F 36.5 °F 30.40 in Calm     93 % 0.00 in WeatherDisplay:10.37 W/m2 SKC
02:34 38.2 °F 36.4 °F 30.40 in Calm     93 % 0.00 in WeatherDisplay:10.37 W/m2 SKC
02:39 38.2 °F 36.4 °F 30.39 in Calm     93 % 0.00 in WeatherDisplay:10.37 W/m2 SKC
02:44 38.1 °F 36.3 °F 30.39 in Calm     93 % 0.00 in WeatherDisplay:10.37 W/m2 SKC
02:49 38.1 °F 36.3 °F 30.39 in Calm     93 % 0.00 in WeatherDisplay:10.37 W/m2 SKC
02:54 38.0 °F 36.2 °F 30.39 in Calm     93 % 0.00 in WeatherDisplay:10.37 W/m2 SKC
02:59 37.9 °F 36.1 °F 30.39 in Calm     93 % 0.00 in WeatherDisplay:10.37 W/m2 SKC
03:04 37.9 °F 36.0 °F 30.39 in Calm     93 % 0.00 in WeatherDisplay:10.37 W/m2 SKC
03:09 37.8 °F 36.0 °F 30.39 in Calm     93 % 0.00 in WeatherDisplay:10.37 W/m2 SKC
03:14 37.7 °F 35.9 °F 30.38 in Calm     93 % 0.00 in WeatherDisplay:10.37 W/m2 SKC
03:19 37.7 °F 35.8 °F 30.38 in Calm     93 % 0.00 in WeatherDisplay:10.37 W/m2 SKC
03:24 37.6 °F 35.8 °F 30.38 in Calm     93 % 0.00 in WeatherDisplay:10.37 W/m2 SKC
03:29 37.4 °F 35.6 °F 30.38 in Calm     93 % 0.00 in WeatherDisplay:10.37 W/m2 SKC
03:34 37.4 °F 35.6 °F 30.38 in Calm     93 % 0.00 in WeatherDisplay:10.37 W/m2 SKC
03:39 37.3 °F 35.5 °F 30.38 in Calm     93 % 0.00 in WeatherDisplay:10.37 W/m2 SKC
03:44 37.2 °F 35.4 °F 30.38 in Calm     93 % 0.00 in WeatherDisplay:10.37 W/m2 SKC
03:49 37.1 °F 35.3 °F 30.38 in Calm     93 % 0.00 in WeatherDisplay:10.37 W/m2 SKC
03:54 37.0 °F 35.2 °F 30.39 in Calm     93 % 0.00 in WeatherDisplay:10.37 W/m2 SKC
04:04 36.9 °F 35.1 °F 30.39 in Calm     93 % 0.00 in WeatherDisplay:10.37 W/m2 SKC
04:09 36.8 °F 35.0 °F 30.39 in Calm     93 % 0.00 in WeatherDisplay:10.37 W/m2 SKC
04:14 36.7 °F 34.9 °F 30.38 in Calm     93 % 0.00 in WeatherDisplay:10.37 W/m2 SKC
04:19 36.6 °F 34.8 °F 30.38 in Calm     93 % 0.00 in WeatherDisplay:10.37 W/m2 SKC
04:24 36.5 °F 34.7 °F 30.38 in Calm     93 % 0.00 in WeatherDisplay:10.37 W/m2 SKC
04:29 36.4 °F 34.6 °F 30.38 in Calm     93 % 0.00 in WeatherDisplay:10.37 W/m2 SKC
04:34 36.3 °F 34.5 °F 30.38 in Calm     93 % 0.00 in WeatherDisplay:10.37 W/m2 SKC
04:39 36.3 °F 34.5 °F 30.38 in Calm     93 % 0.00 in WeatherDisplay:10.37 W/m2 SKC
04:44 36.2 °F 34.4 °F 30.38 in Calm     93 % 0.00 in WeatherDisplay:10.37 W/m2 SKC
04:49 36.2 °F 34.3 °F 30.38 in Calm     93 % 0.00 in WeatherDisplay:10.37 W/m2 SKC
04:54 36.1 °F 34.3 °F 30.38 in Calm     93 % 0.00 in WeatherDisplay:10.37 W/m2 SKC
04:59 36.0 °F 34.2 °F 30.38 in Calm     93 % 0.00 in WeatherDisplay:10.37 W/m2 SKC
05:04 36.0 °F 34.2 °F 30.38 in Calm     93 % 0.00 in WeatherDisplay:10.37 W/m2 SKC
05:09 35.9 °F 34.1 °F 30.38 in Calm     93 % 0.00 in WeatherDisplay:10.37 W/m2 SKC
05:19 35.8 °F 34.0 °F 30.38 in Calm     93 % 0.00 in WeatherDisplay:10.37 W/m2 SKC
05:24 35.8 °F 33.9 °F 30.38 in Calm     93 % 0.00 in WeatherDisplay:10.37 W/m2 SKC
05:29 35.7 °F 33.9 °F 30.38 in Calm     93 % 0.00 in WeatherDisplay:10.37 W/m2 SKC
05:34 35.6 °F 33.8 °F 30.38 in Calm     93 % 0.00 in WeatherDisplay:10.37 W/m2 SKC
05:39 35.6 °F 33.8 °F 30.38 in Calm     93 % 0.00 in WeatherDisplay:10.37 W/m2 SKC
05:44 35.5 °F 33.7 °F 30.38 in Calm     93 % 0.00 in WeatherDisplay:10.37 W/m2 SKC
05:49 35.5 °F 33.7 °F 30.38 in Calm     93 % 0.00 in WeatherDisplay:10.37 W/m2 SKC
05:54 35.4 °F 33.6 °F 30.38 in Calm     93 % 0.00 in WeatherDisplay:10.37 W/m2 SKC
05:59 35.3 °F 33.5 °F 30.38 in Calm     93 % 0.00 in WeatherDisplay:10.37 W/m2 SKC
06:04 35.2 °F 33.4 °F 30.38 in Calm     93 % 0.00 in WeatherDisplay:10.37 W/m2 SKC
06:09 35.2 °F 33.4 °F 30.38 in Calm     93 % 0.00 in WeatherDisplay:10.37 W/m2 SKC
06:14 35.1 °F 33.3 °F 30.38 in Calm     93 % 0.00 in WeatherDisplay:10.37 W/m2 SKC
06:19 35.1 °F 33.3 °F 30.38 in Calm     93 % 0.00 in WeatherDisplay:10.37 W/m2 SKC
06:24 35.0 °F 33.2 °F 30.38 in Calm     93 % 0.00 in WeatherDisplay:10.37 W/m2 SKC
06:29 34.9 °F 33.1 °F 30.38 in Calm     93 % 0.00 in WeatherDisplay:10.37 W/m2 SKC
06:34 34.9 °F 33.1 °F 30.38 in Calm     93 % 0.00 in WeatherDisplay:10.37 W/m2 SKC
06:39 34.8 °F 33.0 °F 30.38 in Calm     93 % 0.00 in WeatherDisplay:10.37 W/m2 SKC
06:44 34.7 °F 32.9 °F 30.38 in Calm     93 % 0.00 in WeatherDisplay:10.37 W/m2 SKC
06:49 34.7 °F 32.9 °F 30.38 in Calm     93 % 0.00 in WeatherDisplay:10.37 W/m2 SKC
06:54 34.7 °F 33.2 °F 30.38 in Calm     94 % 0.00 in WeatherDisplay:10.37 W/m2 SKC
07:04 34.6 °F 32.8 °F 30.38 in Calm     93 % 0.00 in WeatherDisplay:10.37 W/m2 SKC
07:09 34.6 °F 32.8 °F 30.38 in Calm     93 % 0.00 in WeatherDisplay:10.37 W/m2 SKC
07:14 34.6 °F 33.1 °F 30.38 in Calm     94 % 0.00 in WeatherDisplay:10.37 W/m2 FEW
07:19 34.6 °F 33.1 °F 30.38 in Calm     94 % 0.00 in WeatherDisplay:10.37 W/m2 FEW
07:24 34.6 °F 33.1 °F 30.38 in Calm     94 % 0.00 in WeatherDisplay:10.37 W/m2 FEW
07:29 34.6 °F 33.1 °F 30.38 in Calm     94 % 0.00 in WeatherDisplay:10.37 W/m2 FEW
07:34 34.7 °F 33.1 °F 30.38 in Calm     94 % 0.00 in WeatherDisplay:10.37 W/m2 FEW
07:39 34.7 °F 33.2 °F 30.38 in Calm     94 % 0.00 in WeatherDisplay:10.37 W/m2 FEW
07:49 34.8 °F 33.2 °F 30.38 in Calm     94 % 0.00 in WeatherDisplay:10.37 W/m2 FEW
07:54 34.9 °F 33.3 °F 30.38 in Calm     94 % 0.00 in WeatherDisplay:10.37 W/m2 FEW
07:59 35.0 °F 33.4 °F 30.38 in Calm     94 % 0.00 in WeatherDisplay:10.37 W/m2 FEW
08:04 35.2 °F 33.6 °F 30.38 in Calm     94 % 0.00 in WeatherDisplay:10.37 W/m2 FEW
08:09 35.4 °F 34.1 °F 30.37 in Calm     95 % 0.00 in WeatherDisplay:10.37 W/m2 FEW
08:14 35.6 °F 34.3 °F 30.38 in Calm     95 % 0.00 in WeatherDisplay:10.37 W/m2 FEW
08:19 35.9 °F 34.6 °F 30.38 in Calm     95 % 0.00 in WeatherDisplay:10.37 W/m2 FEW
08:24 36.2 °F 34.9 °F 30.38 in Calm     95 % 0.00 in WeatherDisplay:10.37 W/m2 FEW
08:29 36.6 °F 35.5 °F 30.38 in Calm     96 % 0.00 in WeatherDisplay:10.37 W/m2 FEW
08:34 37.0 °F 35.7 °F 30.38 in Calm     95 % 0.00 in WeatherDisplay:10.37 W/m2 FEW
08:39 37.3 °F 36.3 °F 30.38 in Calm     96 % 0.00 in WeatherDisplay:10.37 W/m2 FEW
08:49 38.1 °F 37.0 °F 30.38 in Calm     96 % 0.00 in WeatherDisplay:10.37 W/m2 FEW
08:54 38.4 °F 37.4 °F 30.38 in Calm   2.0 mph 96 % 0.00 in WeatherDisplay:10.37 W/m2 FEW
08:59 38.9 °F 37.8 °F 30.38 in Calm   2.0 mph 96 % 0.00 in WeatherDisplay:10.37 W/m2 FEW
09:04 39.3 °F 38.2 °F 30.37 in Calm   1.0 mph 96 % 0.00 in WeatherDisplay:10.37 W/m2 FEW
09:09 39.7 °F 38.6 °F 30.37 in Calm     96 % 0.00 in WeatherDisplay:10.37 W/m2 FEW
09:14 40.1 °F 39.0 °F 30.37 in Calm     96 % 0.00 in WeatherDisplay:10.37 W/m2 FEW
09:19 40.5 °F 39.5 °F 30.37 in Calm     96 % 0.00 in WeatherDisplay:10.37 W/m2 FEW
09:29 41.4 °F 40.4 °F 30.37 in Calm     96 % 0.00 in WeatherDisplay:10.37 W/m2 FEW
09:34 41.8 °F 41.8 °F 30.36 in ESE 1.0 mph 3.0 mph 100 % 0.00 in WeatherDisplay:10.37 W/m2 FEW
09:39 42.3 °F 42.3 °F 30.36 in Calm     100 % 0.00 in WeatherDisplay:10.37 W/m2 FEW
09:44 42.8 °F 42.8 °F 30.36 in Calm   1.0 mph 100 % 0.00 in WeatherDisplay:10.37 W/m2 FEW
09:49 43.2 °F 43.2 °F 30.36 in Calm     100 % 0.00 in WeatherDisplay:10.37 W/m2 FEW
09:54 43.8 °F 43.8 °F 30.36 in Calm   2.0 mph 100 % 0.00 in WeatherDisplay:10.37 W/m2 FEW
09:59 44.4 °F 44.4 °F 30.36 in Calm   1.0 mph 100 % 0.00 in WeatherDisplay:10.37 W/m2 FEW
10:04 44.9 °F 44.9 °F 30.36 in Calm   1.0 mph 100 % 0.00 in WeatherDisplay:10.37 W/m2 FEW
10:09 45.5 °F 45.5 °F 30.36 in Calm   1.0 mph 100 % 0.00 in WeatherDisplay:10.37 W/m2 FEW
10:14 46.0 °F 45.2 °F 30.36 in Calm   1.0 mph 97 % 0.00 in WeatherDisplay:10.37 W/m2 FEW
10:19 46.5 °F 45.4 °F 30.35 in Calm   1.0 mph 96 % 0.00 in WeatherDisplay:10.37 W/m2 FEW
10:24 47.0 °F 45.6 °F 30.35 in Calm   3.0 mph 95 % 0.00 in WeatherDisplay:10.37 W/m2 FEW
10:29 47.5 °F 45.8 °F 30.35 in Calm     94 % 0.00 in WeatherDisplay:10.37 W/m2 FEW
10:34 47.8 °F 45.6 °F 30.35 in Calm     92 % 0.00 in WeatherDisplay:10.37 W/m2 FEW
10:39 48.2 °F 45.7 °F 30.35 in Calm     91 % 0.00 in WeatherDisplay:10.37 W/m2 FEW
10:44 48.5 °F 45.1 °F 30.35 in Calm   2.0 mph 88 % 0.00 in WeatherDisplay:10.37 W/m2 FEW
10:49 48.8 °F 44.8 °F 30.34 in Calm   2.0 mph 86 % 0.00 in WeatherDisplay:10.37 W/m2 FEW
10:54 49.1 °F 44.5 °F 30.34 in Calm   3.0 mph 84 % 0.00 in WeatherDisplay:10.37 W/m2 FEW
10:59 49.4 °F 44.4 °F 30.34 in Calm     83 % 0.00 in WeatherDisplay:10.37 W/m2 FEW
11:04 49.6 °F 44.0 °F 30.34 in Calm   1.0 mph 81 % 0.00 in WeatherDisplay:10.37 W/m2 FEW
11:09 49.9 °F 43.9 °F 30.34 in East 1.0 mph 3.0 mph 80 % 0.00 in WeatherDisplay:10.37 W/m2 FEW
11:14 50.2 °F 43.6 °F 30.34 in Calm   3.0 mph 78 % 0.00 in WeatherDisplay:10.37 W/m2 FEW
11:19 50.4 °F 43.8 °F 30.34 in Calm   1.0 mph 78 % 0.00 in WeatherDisplay:10.37 W/m2 FEW
11:24 50.7 °F 44.4 °F 30.33 in Calm     79 % 0.00 in WeatherDisplay:10.37 W/m2 FEW
11:29 51.1 °F 44.4 °F 30.33 in Calm   2.0 mph 78 % 0.00 in WeatherDisplay:10.37 W/m2 FEW
11:34 51.4 °F 44.4 °F 30.33 in Calm   1.0 mph 77 % 0.00 in WeatherDisplay:10.37 W/m2 FEW
11:39 51.7 °F 44.4 °F 30.33 in Calm   2.0 mph 76 % 0.00 in WeatherDisplay:10.37 W/m2 FEW
11:44 52.0 °F 44.6 °F 30.33 in Calm   3.0 mph 76 % 0.00 in WeatherDisplay:10.37 W/m2 FEW
11:49 52.3 °F 45.0 °F 30.33 in Calm   3.0 mph 76 % 0.00 in WeatherDisplay:10.37 W/m2 FEW
11:54 52.6 °F 44.6 °F 30.33 in Calm   4.0 mph 74 % 0.00 in WeatherDisplay:10.37 W/m2 FEW
12:04 53.1 °F 44.7 °F 30.32 in Calm     73 % 0.00 in WeatherDisplay:10.37 W/m2 FEW
12:09 53.4 °F 45.0 °F 30.32 in Calm   3.0 mph 73 % 0.00 in WeatherDisplay:10.37 W/m2 FEW
12:14 53.6 °F 45.2 °F 30.32 in Calm   3.0 mph 73 % 0.00 in WeatherDisplay:10.37 W/m2 BKN
12:19 53.9 °F 45.4 °F 30.31 in Calm     73 % 0.00 in WeatherDisplay:10.37 W/m2 BKN
12:24 54.1 °F 46.0 °F 30.31 in Calm   1.0 mph 74 % 0.00 in WeatherDisplay:10.37 W/m2 BKN
12:29 54.4 °F 45.2 °F 30.31 in Calm   1.0 mph 71 % 0.00 in WeatherDisplay:10.37 W/m2 BKN
12:39 54.9 °F 45.3 °F 30.29 in Calm   3.0 mph 70 % 0.00 in WeatherDisplay:10.37 W/m2 BKN
12:44 55.1 °F 45.1 °F 30.29 in Calm   1.0 mph 69 % 0.00 in WeatherDisplay:10.37 W/m2 BKN
12:49 55.3 °F 45.7 °F 30.28 in Calm   1.0 mph 70 % 0.00 in WeatherDisplay:10.37 W/m2 BKN
12:54 55.5 °F 45.5 °F 30.28 in Calm   2.0 mph 69 % 0.00 in WeatherDisplay:10.37 W/m2 BKN
12:59 55.7 °F 45.3 °F 30.28 in Calm   4.0 mph 68 % 0.00 in WeatherDisplay:10.37 W/m2 BKN
13:04 55.8 °F 45.8 °F 30.28 in Calm   2.0 mph 69 % 0.00 in WeatherDisplay:10.37 W/m2 BKN
13:09 56.0 °F 46.4 °F 30.28 in Calm   1.0 mph 70 % 0.00 in WeatherDisplay:10.37 W/m2 BKN
13:19 56.5 °F 46.4 °F 30.27 in Calm   2.0 mph 69 % 0.00 in WeatherDisplay:10.37 W/m2 FEW
13:24 56.7 °F 45.9 °F 30.27 in Calm   1.0 mph 67 % 0.00 in WeatherDisplay:10.37 W/m2 FEW
13:29 56.9 °F 46.4 °F 30.26 in Calm     68 % 0.00 in WeatherDisplay:10.37 W/m2 FEW
13:34 57.0 °F 47.0 °F 30.26 in Calm   2.0 mph 69 % 0.00 in WeatherDisplay:10.37 W/m2 FEW
13:39 57.3 °F 46.8 °F 30.26 in Calm   1.0 mph 68 % 0.00 in WeatherDisplay:10.37 W/m2 FEW
13:44 57.5 °F 46.6 °F 30.25 in Calm   1.0 mph 67 % 0.00 in WeatherDisplay:10.37 W/m2 FEW
13:49 57.9 °F 46.6 °F 30.25 in Calm   3.0 mph 66 % 0.00 in WeatherDisplay:10.37 W/m2 FEW
13:59 58.4 °F 45.8 °F 30.24 in Calm     63 % 0.00 in WeatherDisplay:10.37 W/m2 FEW
14:04 58.6 °F 47.7 °F 30.24 in Calm     67 % 0.00 in WeatherDisplay:10.37 W/m2 FEW
14:09 58.9 °F 46.7 °F 30.24 in Calm   2.0 mph 64 % 0.00 in WeatherDisplay:10.37 W/m2 FEW
14:14 59.1 °F 47.3 °F 30.24 in Calm   1.0 mph 65 % 0.00 in WeatherDisplay:10.37 W/m2 BKN
14:19 59.3 °F 45.8 °F 30.24 in Calm     61 % 0.00 in WeatherDisplay:10.37 W/m2 BKN
14:24 59.5 °F 45.6 °F 30.24 in Calm     60 % 0.00 in WeatherDisplay:10.37 W/m2 BKN
14:29 59.6 °F 45.7 °F 30.24 in Calm   1.0 mph 60 % 0.00 in WeatherDisplay:10.37 W/m2 BKN
14:34 59.8 °F 46.3 °F 30.24 in Calm     61 % 0.00 in WeatherDisplay:10.37 W/m2 BKN
14:39 60.0 °F 46.5 °F 30.23 in Calm   1.0 mph 61 % 0.00 in WeatherDisplay:10.37 W/m2 BKN
14:44 60.1 °F 46.6 °F 30.23 in Calm     61 % 0.00 in WeatherDisplay:10.37 W/m2 BKN
14:49 60.2 °F 46.3 °F 30.23 in Calm     60 % 0.00 in WeatherDisplay:10.37 W/m2 BKN
14:54 60.3 °F 47.2 °F 30.23 in Calm     62 % 0.00 in WeatherDisplay:10.37 W/m2 BKN
14:59 60.4 °F 47.7 °F 30.23 in Calm     63 % 0.00 in WeatherDisplay:10.37 W/m2 BKN
15:04 60.4 °F 47.3 °F 30.23 in Calm     62 % 0.00 in WeatherDisplay:10.37 W/m2 BKN
15:09 60.3 °F 46.4 °F 30.22 in Calm     60 % 0.00 in WeatherDisplay:10.37 W/m2 BKN
15:14 60.3 °F 47.2 °F 30.22 in Calm     62 % 0.00 in WeatherDisplay:10.37 W/m2 BKN
15:19 60.3 °F 47.2 °F 30.22 in Calm     62 % 0.00 in WeatherDisplay:10.37 W/m2 BKN
15:24 60.3 °F 47.6 °F 30.22 in Calm     63 % 0.00 in WeatherDisplay:10.37 W/m2 BKN
15:29 60.2 °F 48.4 °F 30.21 in Calm     65 % 0.00 in WeatherDisplay:10.37 W/m2 BKN
15:34 60.1 °F 47.0 °F 30.21 in Calm     62 % 0.00 in WeatherDisplay:10.37 W/m2 BKN
15:39 60.0 °F 46.9 °F 30.21 in Calm   1.0 mph 62 % 0.00 in WeatherDisplay:10.37 W/m2 BKN
15:44 59.9 °F 46.8 °F 30.21 in Calm   1.0 mph 62 % 0.00 in WeatherDisplay:10.37 W/m2 BKN
15:49 59.8 °F 47.2 °F 30.21 in Calm   1.0 mph 63 % 0.00 in WeatherDisplay:10.37 W/m2 BKN
15:54 59.6 °F 46.2 °F 30.20 in Calm   1.0 mph 61 % 0.00 in WeatherDisplay:10.37 W/m2 BKN
15:59 59.6 °F 47.0 °F 30.20 in Calm     63 % 0.00 in WeatherDisplay:10.37 W/m2 BKN
16:04 59.5 °F 47.3 °F 30.21 in Calm     64 % 0.00 in WeatherDisplay:10.37 W/m2 BKN
16:09 59.4 °F 46.8 °F 30.21 in Calm     63 % 0.00 in WeatherDisplay:10.37 W/m2 BKN
16:14 59.4 °F 46.8 °F 30.21 in Calm     63 % 0.00 in WeatherDisplay:10.37 W/m2 BKN
16:19 59.3 °F 46.7 °F 30.20 in Calm     63 % 0.00 in WeatherDisplay:10.37 W/m2 BKN
16:24 59.2 °F 46.6 °F 30.20 in Calm     63 % 0.00 in WeatherDisplay:10.37 W/m2 BKN
16:29 59.1 °F 46.9 °F 30.20 in Calm     64 % 0.00 in WeatherDisplay:10.37 W/m2 BKN
16:34 59.0 °F 46.8 °F 30.20 in Calm     64 % 0.00 in WeatherDisplay:10.37 W/m2 BKN
16:39 58.9 °F 47.2 °F 30.20 in Calm     65 % 0.00 in WeatherDisplay:10.37 W/m2 BKN
16:44 58.8 °F 47.5 °F 30.20 in Calm     66 % 0.00 in WeatherDisplay:10.37 W/m2 BKN
16:49 58.7 °F 47.4 °F 30.20 in Calm     66 % 0.00 in WeatherDisplay:10.37 W/m2 BKN
16:54 58.6 °F 48.1 °F 30.19 in Calm     68 % 0.00 in WeatherDisplay:10.37 W/m2 BKN
16:59 58.5 °F 48.4 °F 30.19 in Calm     69 % 0.00 in WeatherDisplay:10.37 W/m2 BKN
17:09 58.2 °F 48.1 °F 30.19 in Calm     69 % 0.00 in WeatherDisplay:10.37 W/m2 BKN
17:14 58.1 °F 48.0 °F 30.19 in Calm     69 % 0.00 in WeatherDisplay:10.37 W/m2 BKN
17:19 57.9 °F 47.8 °F 30.19 in Calm     69 % 0.00 in WeatherDisplay:10.37 W/m2 BKN
17:24 57.7 °F 47.6 °F 30.19 in Calm     69 % 0.00 in WeatherDisplay:10.37 W/m2 BKN
17:29 57.6 °F 47.5 °F 30.19 in Calm     69 % 0.00 in WeatherDisplay:10.37 W/m2 BKN
17:34 57.5 °F 47.4 °F 30.19 in Calm     69 % 0.00 in WeatherDisplay:10.37 W/m2 BKN
17:39 57.4 °F 47.7 °F 30.19 in Calm     70 % 0.00 in WeatherDisplay:10.37 W/m2 BKN
17:44 57.3 °F 48.0 °F 30.19 in Calm     71 % 0.00 in WeatherDisplay:10.37 W/m2 BKN
17:49 57.2 °F 47.8 °F 30.19 in Calm     71 % 0.00 in WeatherDisplay:10.37 W/m2 BKN
17:54 57.1 °F 48.1 °F 30.19 in Calm     72 % 0.00 in WeatherDisplay:10.37 W/m2 BKN
17:59 56.9 °F 48.0 °F 30.19 in Calm     72 % 0.00 in WeatherDisplay:10.37 W/m2 BKN
18:04 56.8 °F 47.9 °F 30.19 in Calm     72 % 0.00 in WeatherDisplay:10.37 W/m2 BKN
18:09 56.7 °F 48.1 °F 30.19 in Calm     73 % 0.00 in WeatherDisplay:10.37 W/m2 BKN
18:14 56.6 °F 48.4 °F 30.19 in Calm     74 % 0.00 in WeatherDisplay:10.37 W/m2 BKN
18:19 56.5 °F 48.7 °F 30.19 in Calm     75 % 0.00 in WeatherDisplay:10.37 W/m2 BKN
18:24 56.4 °F 48.6 °F 30.19 in Calm     75 % 0.00 in WeatherDisplay:10.37 W/m2 BKN
18:29 56.3 °F 48.5 °F 30.19 in Calm     75 % 0.00 in WeatherDisplay:10.37 W/m2 BKN
18:34 56.2 °F 48.4 °F 30.19 in Calm     75 % 0.00 in WeatherDisplay:10.37 W/m2 BKN
18:39 56.1 °F 48.2 °F 30.19 in Calm     75 % 0.00 in WeatherDisplay:10.37 W/m2 BKN
18:44 55.9 °F 48.5 °F 30.19 in Calm     76 % 0.00 in WeatherDisplay:10.37 W/m2 BKN
18:49 55.8 °F 48.3 °F 30.19 in Calm     76 % 0.00 in WeatherDisplay:10.37 W/m2 BKN
18:54 55.7 °F 48.3 °F 30.19 in Calm     76 % 0.00 in WeatherDisplay:10.37 W/m2 BKN
18:59 55.6 °F 48.5 °F 30.19 in Calm     77 % 0.00 in WeatherDisplay:10.37 W/m2 BKN
19:04 55.5 °F 48.4 °F 30.19 in Calm     77 % 0.00 in WeatherDisplay:10.37 W/m2 BKN
19:09 55.4 °F 48.3 °F 30.19 in Calm     77 % 0.00 in WeatherDisplay:10.37 W/m2 BKN
19:14 55.3 °F 48.2 °F 30.19 in Calm     77 % 0.00 in WeatherDisplay:10.37 W/m2 OVC
19:19 55.2 °F 48.5 °F 30.19 in Calm     78 % 0.00 in WeatherDisplay:10.37 W/m2 OVC
19:24 55.1 °F 48.4 °F 30.19 in Calm     78 % 0.00 in WeatherDisplay:10.37 W/m2 OVC
19:29 55.1 °F 48.7 °F 30.19 in Calm     79 % 0.00 in WeatherDisplay:10.37 W/m2 OVC
19:34 55.0 °F 48.6 °F 30.19 in Calm     79 % 0.00 in WeatherDisplay:10.37 W/m2 OVC
19:39 54.9 °F 48.5 °F 30.19 in Calm     79 % 0.00 in WeatherDisplay:10.37 W/m2 OVC
19:44 54.8 °F 48.4 °F 30.19 in Calm     79 % 0.00 in WeatherDisplay:10.37 W/m2 OVC
19:49 54.7 °F 48.6 °F 30.19 in Calm     80 % 0.00 in WeatherDisplay:10.37 W/m2 OVC
19:54 54.7 °F 48.6 °F 30.19 in Calm     80 % 0.00 in WeatherDisplay:10.37 W/m2 OVC
19:59 54.6 °F 48.6 °F 30.18 in Calm     80 % 0.00 in WeatherDisplay:10.37 W/m2 OVC
20:04 54.5 °F 48.8 °F 30.18 in Calm     81 % 0.00 in WeatherDisplay:10.37 W/m2 OVC
20:09 54.5 °F 48.8 °F 30.18 in Calm     81 % 0.00 in WeatherDisplay:10.37 W/m2 OVC
20:14 54.4 °F 49.0 °F 30.18 in Calm     82 % 0.00 in WeatherDisplay:10.37 W/m2 OVC
20:19 54.4 °F 49.0 °F 30.18 in Calm     82 % 0.00 in WeatherDisplay:10.37 W/m2 OVC
20:24 54.3 °F 48.9 °F 30.18 in Calm     82 % 0.00 in WeatherDisplay:10.37 W/m2 OVC
20:29 54.2 °F 48.8 °F 30.18 in Calm     82 % 0.00 in WeatherDisplay:10.37 W/m2 OVC
20:34 54.1 °F 48.8 °F 30.18 in Calm     82 % 0.00 in WeatherDisplay:10.37 W/m2 OVC
20:39 54.1 °F 48.4 °F 30.18 in Calm     81 % 0.00 in WeatherDisplay:10.37 W/m2 OVC
20:44 54.0 °F 48.3 °F 30.18 in Calm     81 % 0.00 in WeatherDisplay:10.37 W/m2 OVC
20:49 54.0 °F 48.3 °F 30.18 in Calm     81 % 0.00 in WeatherDisplay:10.37 W/m2 OVC
20:54 53.9 °F 48.2 °F 30.18 in Calm     81 % 0.00 in WeatherDisplay:10.37 W/m2 OVC
20:59 53.9 °F 48.2 °F 30.18 in Calm     81 % 0.00 in WeatherDisplay:10.37 W/m2 OVC
21:04 53.9 °F 48.5 °F 30.18 in Calm     82 % 0.00 in WeatherDisplay:10.37 W/m2 OVC
21:09 53.9 °F 48.5 °F 30.18 in Calm     82 % 0.00 in WeatherDisplay:10.37 W/m2 OVC
21:14 53.8 °F 48.5 °F 30.18 in Calm     82 % 0.00 in WeatherDisplay:10.37 W/m2 OVC
21:19 53.8 °F 48.5 °F 30.18 in Calm     82 % 0.00 in WeatherDisplay:10.37 W/m2 OVC
21:24 53.8 °F 48.4 °F 30.18 in Calm     82 % 0.00 in WeatherDisplay:10.37 W/m2 OVC
21:29 53.8 °F 48.4 °F 30.18 in Calm     82 % 0.00 in WeatherDisplay:10.37 W/m2 OVC
21:34 53.8 °F 48.4 °F 30.18 in Calm     82 % 0.00 in WeatherDisplay:10.37 W/m2 OVC
21:39 53.7 °F 48.0 °F 30.18 in Calm     81 % 0.00 in WeatherDisplay:10.37 W/m2 OVC
21:44 53.7 °F 48.0 °F 30.18 in Calm     81 % 0.00 in WeatherDisplay:10.37 W/m2 OVC
21:49 53.6 °F 47.9 °F 30.18 in Calm     81 % 0.00 in WeatherDisplay:10.37 W/m2 OVC
21:54 53.6 °F 48.3 °F 30.18 in Calm     82 % 0.00 in WeatherDisplay:10.37 W/m2 -RA
22:04 53.6 °F 48.2 °F 30.18 in Calm     82 % 0.00 in WeatherDisplay:10.37 W/m2 -RA
22:09 53.6 °F 48.6 °F 30.18 in Calm     83 % 0.00 in WeatherDisplay:10.37 W/m2 -RA
22:19 53.6 °F 48.9 °F 30.17 in Calm     84 % 0.00 in WeatherDisplay:10.37 W/m2 -RA
22:24 53.6 °F 48.9 °F 30.18 in Calm     84 % 0.00 in WeatherDisplay:10.37 W/m2 -RA
22:29 53.6 °F 48.9 °F 30.18 in Calm     84 % 0.00 in WeatherDisplay:10.37 W/m2 -RA
22:34 53.6 °F 49.2 °F 30.17 in Calm     85 % 0.00 in WeatherDisplay:10.37 W/m2 -RA
22:39 53.5 °F 49.1 °F 30.17 in Calm     85 % 0.00 in WeatherDisplay:10.37 W/m2 -RA
22:44 53.5 °F 49.1 °F 30.17 in Calm     85 % 0.00 in WeatherDisplay:10.37 W/m2 -RA
22:49 53.4 °F 49.0 °F 30.17 in Calm     85 % 0.00 in WeatherDisplay:10.37 W/m2 -RA
22:54 53.4 °F 49.3 °F 30.17 in Calm     86 % 0.00 in WeatherDisplay:10.37 W/m2 -RA
22:59 53.4 °F 49.3 °F 30.17 in Calm     86 % 0.00 in WeatherDisplay:10.37 W/m2 -RA
23:04 53.4 °F 49.3 °F 30.17 in Calm     86 % 0.00 in WeatherDisplay:10.37 W/m2 OVC
23:09 53.4 °F 49.6 °F 30.17 in Calm     87 % 0.00 in WeatherDisplay:10.37 W/m2 OVC
23:19 53.4 °F 49.3 °F 30.17 in Calm     86 % 0.00 in WeatherDisplay:10.37 W/m2 OVC
23:24 53.4 °F 49.6 °F 30.17 in Calm     87 % 0.00 in WeatherDisplay:10.37 W/m2 OVC
23:29 53.4 °F 49.6 °F 30.17 in Calm     87 % 0.00 in WeatherDisplay:10.37 W/m2 OVC
23:34 53.4 °F 49.6 °F 30.17 in Calm     87 % 0.00 in WeatherDisplay:10.37 W/m2 OVC
23:39 53.4 °F 49.6 °F 30.17 in Calm     87 % 0.00 in WeatherDisplay:10.37 W/m2 OVC
23:44 53.4 °F 49.6 °F 30.16 in Calm     87 % 0.00 in WeatherDisplay:10.37 W/m2 OVC
23:49 53.4 °F 49.6 °F 30.16 in Calm     87 % 0.00 in WeatherDisplay:10.37 W/m2 OVC
23:54 53.4 °F 49.6 °F 30.16 in Calm     87 % 0.00 in WeatherDisplay:10.37 W/m2 OVC
23:59 53.4 °F 49.9 °F 30.16 in Calm     88 % 0.00 in WeatherDisplay:10.37 W/m2 OVC
Juneau County Weather
Compliments of Weather Underground - 2.75 mb